sensor_id;sensor_type;location;lat;lon;timestamp;temperature;humidity
69776;DHT22;57049;51.450;-2.516;2023-02-11T00:01:37;8.49;98.38
69776;DHT22;57049;51.450;-2.516;2023-02-11T00:04:04;8.47;98.45
69776;DHT22;57049;51.450;-2.516;2023-02-11T00:06:31;8.47;98.44
69776;DHT22;57049;51.450;-2.516;2023-02-11T00:08:57;8.42;98.57
69776;DHT22;57049;51.450;-2.516;2023-02-11T00:11:24;8.42;98.60
69776;DHT22;57049;51.450;-2.516;2023-02-11T00:13:51;8.39;98.49
69776;DHT22;57049;51.450;-2.516;2023-02-11T00:16:18;8.35;98.72
69776;DHT22;57049;51.450;-2.516;2023-02-11T00:18:44;8.30;98.65
69776;DHT22;57049;51.450;-2.516;2023-02-11T00:21:16;8.32;98.69
69776;DHT22;57049;51.450;-2.516;2023-02-11T00:23:42;8.32;98.80
69776;DHT22;57049;51.450;-2.516;2023-02-11T00:26:16;8.32;98.82
69776;DHT22;57049;51.450;-2.516;2023-02-11T00:28:43;8.25;98.78
69776;DHT22;57049;51.450;-2.516;2023-02-11T00:31:09;8.24;98.83
69776;DHT22;57049;51.450;-2.516;2023-02-11T00:33:35;8.28;98.84
69776;DHT22;57049;51.450;-2.516;2023-02-11T00:36:07;8.24;98.93
69776;DHT22;57049;51.450;-2.516;2023-02-11T00:38:33;8.35;98.86
69776;DHT22;57049;51.450;-2.516;2023-02-11T00:40:59;8.35;98.90
69776;DHT22;57049;51.450;-2.516;2023-02-11T00:43:24;8.35;98.79
69776;DHT22;57049;51.450;-2.516;2023-02-11T00:45:50;8.32;98.89
69776;DHT22;57049;51.450;-2.516;2023-02-11T00:48:15;8.36;98.83
69776;DHT22;57049;51.450;-2.516;2023-02-11T00:50:41;8.30;98.90
69776;DHT22;57049;51.450;-2.516;2023-02-11T00:53:06;8.33;98.94
69776;DHT22;57049;51.450;-2.516;2023-02-11T00:55:32;8.37;98.89
69776;DHT22;57049;51.450;-2.516;2023-02-11T00:57:57;8.35;98.84
69776;DHT22;57049;51.450;-2.516;2023-02-11T01:00:25;8.36;98.81
69776;DHT22;57049;51.450;-2.516;2023-02-11T01:02:51;8.30;98.84
69776;DHT22;57049;51.450;-2.516;2023-02-11T01:05:17;8.26;98.88
69776;DHT22;57049;51.450;-2.516;2023-02-11T01:07:42;8.37;98.82
69776;DHT22;57049;51.450;-2.516;2023-02-11T01:10:08;8.35;98.85
69776;DHT22;57049;51.450;-2.516;2023-02-11T01:12:34;8.28;98.85
69776;DHT22;57049;51.450;-2.516;2023-02-11T01:15:00;8.32;98.87
69776;DHT22;57049;51.450;-2.516;2023-02-11T01:17:25;8.30;98.82
69776;DHT22;57049;51.450;-2.516;2023-02-11T01:19:51;8.37;98.73
69776;DHT22;57049;51.450;-2.516;2023-02-11T01:22:16;8.35;98.71
69776;DHT22;57049;51.450;-2.516;2023-02-11T01:24:42;8.29;98.72
69776;DHT22;57049;51.450;-2.516;2023-02-11T01:27:07;8.39;98.49
69776;DHT22;57049;51.450;-2.516;2023-02-11T01:29:33;8.36;98.47
69776;DHT22;57049;51.450;-2.516;2023-02-11T01:31:59;8.35;98.47
69776;DHT22;57049;51.450;-2.516;2023-02-11T01:34:25;8.32;98.37
69776;DHT22;57049;51.450;-2.516;2023-02-11T01:36:56;8.29;98.42
69776;DHT22;57049;51.450;-2.516;2023-02-11T01:39:22;8.22;98.44
69776;DHT22;57049;51.450;-2.516;2023-02-11T01:41:47;8.21;98.48
69776;DHT22;57049;51.450;-2.516;2023-02-11T01:44:28;8.19;98.56
69776;DHT22;57049;51.450;-2.516;2023-02-11T01:46:54;8.24;98.46
69776;DHT22;57049;51.450;-2.516;2023-02-11T01:49:48;8.24;98.47
69776;DHT22;57049;51.450;-2.516;2023-02-11T01:54:55;8.29;98.43
69776;DHT22;57049;51.450;-2.516;2023-02-11T01:57:45;8.30;98.46
69776;DHT22;57049;51.450;-2.516;2023-02-11T02:10:47;8.30;98.34
69776;DHT22;57049;51.450;-2.516;2023-02-11T02:13:13;8.32;98.37
69776;DHT22;57049;51.450;-2.516;2023-02-11T02:15:40;8.32;98.33
69776;DHT22;57049;51.450;-2.516;2023-02-11T02:27:33;8.39;98.24
69776;DHT22;57049;51.450;-2.516;2023-02-11T02:33:02;8.32;98.39
69776;DHT22;57049;51.450;-2.516;2023-02-11T02:38:53;8.22;98.56
69776;DHT22;57049;51.450;-2.516;2023-02-11T02:41:32;8.22;98.61
69776;DHT22;57049;51.450;-2.516;2023-02-11T02:43:59;8.30;98.52
69776;DHT22;57049;51.450;-2.516;2023-02-11T02:46:28;8.36;98.53
69776;DHT22;57049;51.450;-2.516;2023-02-11T02:48:55;8.35;98.47
69776;DHT22;57049;51.450;-2.516;2023-02-11T02:57:47;8.35;98.39
69776;DHT22;57049;51.450;-2.516;2023-02-11T03:05:51;8.28;98.38
69776;DHT22;57049;51.450;-2.516;2023-02-11T03:08:29;8.30;98.44
69776;DHT22;57049;51.450;-2.516;2023-02-11T03:10:59;8.26;98.48
69776;DHT22;57049;51.450;-2.516;2023-02-11T03:13:29;8.32;98.46
69776;DHT22;57049;51.450;-2.516;2023-02-11T03:16:01;8.32;98.56
69776;DHT22;57049;51.450;-2.516;2023-02-11T03:18:29;8.32;98.57
69776;DHT22;57049;51.450;-2.516;2023-02-11T03:20:55;8.30;98.60
69776;DHT22;57049;51.450;-2.516;2023-02-11T03:23:46;8.25;98.72
69776;DHT22;57049;51.450;-2.516;2023-02-11T03:26:30;8.35;98.56
69776;DHT22;57049;51.450;-2.516;2023-02-11T03:29:03;8.42;98.39
69776;DHT22;57049;51.450;-2.516;2023-02-11T03:31:39;8.37;98.37
69776;DHT22;57049;51.450;-2.516;2023-02-11T03:34:18;8.42;98.29
69776;DHT22;57049;51.450;-2.516;2023-02-11T03:36:51;8.46;98.19
69776;DHT22;57049;51.450;-2.516;2023-02-11T03:39:23;8.42;98.27
69776;DHT22;57049;51.450;-2.516;2023-02-11T03:41:50;8.43;98.27
69776;DHT22;57049;51.450;-2.516;2023-02-11T03:44:18;8.39;98.39
69776;DHT22;57049;51.450;-2.516;2023-02-11T03:46:48;8.43;98.41
69776;DHT22;57049;51.450;-2.516;2023-02-11T03:49:17;8.45;98.40
69776;DHT22;57049;51.450;-2.516;2023-02-11T03:51:44;8.43;98.34
69776;DHT22;57049;51.450;-2.516;2023-02-11T03:54:15;8.42;98.35
69776;DHT22;57049;51.450;-2.516;2023-02-11T03:56:50;8.49;98.23
69776;DHT22;57049;51.450;-2.516;2023-02-11T03:59:16;8.50;98.12
69776;DHT22;57049;51.450;-2.516;2023-02-11T04:01:42;8.47;98.18
69776;DHT22;57049;51.450;-2.516;2023-02-11T04:04:07;8.46;98.20
69776;DHT22;57049;51.450;-2.516;2023-02-11T04:06:33;8.43;98.22
69776;DHT22;57049;51.450;-2.516;2023-02-11T04:08:59;8.40;98.22
69776;DHT22;57049;51.450;-2.516;2023-02-11T04:11:24;8.46;98.14
69776;DHT22;57049;51.450;-2.516;2023-02-11T04:13:49;8.43;98.04
69776;DHT22;57049;51.450;-2.516;2023-02-11T04:16:15;8.43;98.09
69776;DHT22;57049;51.450;-2.516;2023-02-11T04:18:40;8.49;98.02
69776;DHT22;57049;51.450;-2.516;2023-02-11T04:21:06;8.47;98.01
69776;DHT22;57049;51.450;-2.516;2023-02-11T04:23:31;8.45;98.06
69776;DHT22;57049;51.450;-2.516;2023-02-11T04:25:57;8.39;98.21
69776;DHT22;57049;51.450;-2.516;2023-02-11T04:28:22;8.37;98.22
69776;DHT22;57049;51.450;-2.516;2023-02-11T04:30:49;8.40;98.24
69776;DHT22;57049;51.450;-2.516;2023-02-11T04:33:15;8.35;98.23
69776;DHT22;57049;51.450;-2.516;2023-02-11T04:35:41;8.36;98.31
69776;DHT22;57049;51.450;-2.516;2023-02-11T04:38:07;8.33;98.38
69776;DHT22;57049;51.450;-2.516;2023-02-11T04:40:32;8.36;98.44
69776;DHT22;57049;51.450;-2.516;2023-02-11T04:42:58;8.35;98.41
69776;DHT22;57049;51.450;-2.516;2023-02-11T04:45:23;8.39;98.42
69776;DHT22;57049;51.450;-2.516;2023-02-11T04:47:49;8.43;98.39
69776;DHT22;57049;51.450;-2.516;2023-02-11T04:50:14;8.39;98.49
69776;DHT22;57049;51.450;-2.516;2023-02-11T04:52:40;8.40;98.46
69776;DHT22;57049;51.450;-2.516;2023-02-11T04:55:05;8.37;98.49
69776;DHT22;57049;51.450;-2.516;2023-02-11T04:57:31;8.36;98.49
69776;DHT22;57049;51.450;-2.516;2023-02-11T04:59:56;8.36;98.50
69776;DHT22;57049;51.450;-2.516;2023-02-11T05:02:22;8.35;98.61
69776;DHT22;57049;51.450;-2.516;2023-02-11T05:04:47;8.33;98.66
69776;DHT22;57049;51.450;-2.516;2023-02-11T05:07:13;8.36;98.57
69776;DHT22;57049;51.450;-2.516;2023-02-11T05:09:38;8.33;98.61
69776;DHT22;57049;51.450;-2.516;2023-02-11T05:12:04;8.32;98.63
69776;DHT22;57049;51.450;-2.516;2023-02-11T05:14:29;8.28;98.66
69776;DHT22;57049;51.450;-2.516;2023-02-11T05:16:55;8.26;98.67
69776;DHT22;57049;51.450;-2.516;2023-02-11T05:19:20;8.22;98.74
69776;DHT22;57049;51.450;-2.516;2023-02-11T05:21:46;8.21;98.74
69776;DHT22;57049;51.450;-2.516;2023-02-11T05:24:11;8.21;98.97
69776;DHT22;57049;51.450;-2.516;2023-02-11T05:26:37;8.16;98.98
69776;DHT22;57049;51.450;-2.516;2023-02-11T05:29:02;8.16;98.96
69776;DHT22;57049;51.450;-2.516;2023-02-11T05:31:28;8.13;98.93
69776;DHT22;57049;51.450;-2.516;2023-02-11T05:33:53;8.10;98.91
69776;DHT22;57049;51.450;-2.516;2023-02-11T05:36:18;8.07;98.93
69776;DHT22;57049;51.450;-2.516;2023-02-11T05:38:44;8.09;98.95
69776;DHT22;57049;51.450;-2.516;2023-02-11T05:41:10;8.10;98.96
69776;DHT22;57049;51.450;-2.516;2023-02-11T05:43:36;8.09;99.00
69776;DHT22;57049;51.450;-2.516;2023-02-11T05:46:02;8.05;99.02
69776;DHT22;57049;51.450;-2.516;2023-02-11T05:48:29;8.09;98.98
69776;DHT22;57049;51.450;-2.516;2023-02-11T05:50:54;8.12;99.16
69776;DHT22;57049;51.450;-2.516;2023-02-11T05:53:20;8.12;99.01
69776;DHT22;57049;51.450;-2.516;2023-02-11T05:55:45;8.10;99.03
69776;DHT22;57049;51.450;-2.516;2023-02-11T05:58:11;8.09;99.03
69776;DHT22;57049;51.450;-2.516;2023-02-11T06:00:37;8.09;99.03
69776;DHT22;57049;51.450;-2.516;2023-02-11T06:03:02;8.09;99.06
69776;DHT22;57049;51.450;-2.516;2023-02-11T06:05:28;8.09;99.08
69776;DHT22;57049;51.450;-2.516;2023-02-11T06:07:54;8.07;99.07
69776;DHT22;57049;51.450;-2.516;2023-02-11T06:10:20;8.09;99.11
69776;DHT22;57049;51.450;-2.516;2023-02-11T06:12:46;8.09;99.14
69776;DHT22;57049;51.450;-2.516;2023-02-11T06:15:11;8.07;99.20
69776;DHT22;57049;51.450;-2.516;2023-02-11T06:17:37;8.03;99.34
69776;DHT22;57049;51.450;-2.516;2023-02-11T06:20:04;8.07;99.32
69776;DHT22;57049;51.450;-2.516;2023-02-11T06:22:30;8.05;99.25
69776;DHT22;57049;51.450;-2.516;2023-02-11T06:24:55;8.05;99.26
69776;DHT22;57049;51.450;-2.516;2023-02-11T06:27:21;8.06;99.34
69776;DHT22;57049;51.450;-2.516;2023-02-11T06:29:47;8.06;99.31
69776;DHT22;57049;51.450;-2.516;2023-02-11T06:32:13;8.06;99.60
69776;DHT22;57049;51.450;-2.516;2023-02-11T06:34:39;8.02;99.48
69776;DHT22;57049;51.450;-2.516;2023-02-11T06:37:04;8.02;99.40
69776;DHT22;57049;51.450;-2.516;2023-02-11T06:39:30;7.99;99.42
69776;DHT22;57049;51.450;-2.516;2023-02-11T06:41:56;8.06;99.43
69776;DHT22;57049;51.450;-2.516;2023-02-11T06:44:21;8.03;99.40
69776;DHT22;57049;51.450;-2.516;2023-02-11T06:46:47;7.99;99.44
69776;DHT22;57049;51.450;-2.516;2023-02-11T06:49:12;8.01;99.44
69776;DHT22;57049;51.450;-2.516;2023-02-11T06:51:38;7.99;99.53
69776;DHT22;57049;51.450;-2.516;2023-02-11T06:54:05;7.96;99.55
69776;DHT22;57049;51.450;-2.516;2023-02-11T06:56:30;7.96;99.54
69776;DHT22;57049;51.450;-2.516;2023-02-11T06:58:56;7.96;99.55
69776;DHT22;57049;51.450;-2.516;2023-02-11T07:01:23;7.99;99.56
69776;DHT22;57049;51.450;-2.516;2023-02-11T07:03:49;7.95;99.63
69776;DHT22;57049;51.450;-2.516;2023-02-11T07:06:19;7.96;99.63
69776;DHT22;57049;51.450;-2.516;2023-02-11T07:08:46;7.96;99.60
69776;DHT22;57049;51.450;-2.516;2023-02-11T07:11:18;8.03;99.61
69776;DHT22;57049;51.450;-2.516;2023-02-11T07:13:45;8.07;99.51
69776;DHT22;57049;51.450;-2.516;2023-02-11T07:16:14;8.10;99.58
69776;DHT22;57049;51.450;-2.516;2023-02-11T07:18:40;8.13;99.51
69776;DHT22;57049;51.450;-2.516;2023-02-11T07:21:08;8.13;99.48
69776;DHT22;57049;51.450;-2.516;2023-02-11T07:23:35;8.10;99.61
69776;DHT22;57049;51.450;-2.516;2023-02-11T07:26:06;8.07;99.79
69776;DHT22;57049;51.450;-2.516;2023-02-11T07:28:34;8.07;99.78
69776;DHT22;57049;51.450;-2.516;2023-02-11T07:33:33;8.09;99.82
69776;DHT22;57049;51.450;-2.516;2023-02-11T07:36:00;8.07;99.76
69776;DHT22;57049;51.450;-2.516;2023-02-11T07:38:25;8.06;99.78
69776;DHT22;57049;51.450;-2.516;2023-02-11T07:40:51;8.09;99.81
69776;DHT22;57049;51.450;-2.516;2023-02-11T07:43:16;8.10;99.80
69776;DHT22;57049;51.450;-2.516;2023-02-11T07:45:42;8.09;99.80
69776;DHT22;57049;51.450;-2.516;2023-02-11T07:48:07;8.13;99.90
69776;DHT22;57049;51.450;-2.516;2023-02-11T07:50:33;8.13;99.82
69776;DHT22;57049;51.450;-2.516;2023-02-11T07:52:58;8.13;99.88
69776;DHT22;57049;51.450;-2.516;2023-02-11T07:55:24;8.17;99.89
69776;DHT22;57049;51.450;-2.516;2023-02-11T07:57:49;8.19;99.80
69776;DHT22;57049;51.450;-2.516;2023-02-11T08:00:15;8.29;99.65
69776;DHT22;57049;51.450;-2.516;2023-02-11T08:02:41;8.26;99.59
69776;DHT22;57049;51.450;-2.516;2023-02-11T08:05:07;8.33;99.52
69776;DHT22;57049;51.450;-2.516;2023-02-11T08:07:32;8.33;99.50
69776;DHT22;57049;51.450;-2.516;2023-02-11T08:09:58;8.35;99.46
69776;DHT22;57049;51.450;-2.516;2023-02-11T08:12:23;8.33;99.59
69776;DHT22;57049;51.450;-2.516;2023-02-11T08:14:49;8.33;99.58
69776;DHT22;57049;51.450;-2.516;2023-02-11T08:17:15;8.37;99.54
69776;DHT22;57049;51.450;-2.516;2023-02-11T08:19:41;8.39;99.58
69776;DHT22;57049;51.450;-2.516;2023-02-11T08:22:07;8.39;99.55
69776;DHT22;57049;51.450;-2.516;2023-02-11T08:24:32;8.47;99.51
69776;DHT22;57049;51.450;-2.516;2023-02-11T08:26:58;8.47;99.41
69776;DHT22;57049;51.450;-2.516;2023-02-11T08:29:23;8.52;99.34
69776;DHT22;57049;51.450;-2.516;2023-02-11T08:31:49;8.59;99.28
69776;DHT22;57049;51.450;-2.516;2023-02-11T08:34:14;8.60;99.25
69776;DHT22;57049;51.450;-2.516;2023-02-11T08:36:43;8.68;99.24
69776;DHT22;57049;51.450;-2.516;2023-02-11T08:39:18;8.68;99.26
69776;DHT22;57049;51.450;-2.516;2023-02-11T08:41:44;8.71;99.27
69776;DHT22;57049;51.450;-2.516;2023-02-11T08:44:10;8.74;99.20
69776;DHT22;57049;51.450;-2.516;2023-02-11T08:46:36;8.70;99.08
69776;DHT22;57049;51.450;-2.516;2023-02-11T08:49:02;8.74;99.04
69776;DHT22;57049;51.450;-2.516;2023-02-11T08:51:28;8.74;98.99
69776;DHT22;57049;51.450;-2.516;2023-02-11T08:53:56;8.80;99.02
69776;DHT22;57049;51.450;-2.516;2023-02-11T08:56:22;8.83;98.85
69776;DHT22;57049;51.450;-2.516;2023-02-11T08:58:48;8.87;98.82
69776;DHT22;57049;51.450;-2.516;2023-02-11T09:01:20;8.91;98.81
69776;DHT22;57049;51.450;-2.516;2023-02-11T09:03:45;8.98;98.84
69776;DHT22;57049;51.450;-2.516;2023-02-11T09:06:13;9.03;98.81
69776;DHT22;57049;51.450;-2.516;2023-02-11T09:08:41;9.01;98.68
69776;DHT22;57049;51.450;-2.516;2023-02-11T09:11:07;9.03;98.34
69776;DHT22;57049;51.450;-2.516;2023-02-11T09:13:33;9.00;98.33
69776;DHT22;57049;51.450;-2.516;2023-02-11T09:16:01;9.05;98.34
69776;DHT22;57049;51.450;-2.516;2023-02-11T09:18:27;9.14;98.30
69776;DHT22;57049;51.450;-2.516;2023-02-11T09:20:53;9.15;98.04
69776;DHT22;57049;51.450;-2.516;2023-02-11T09:23:25;9.19;98.07
69776;DHT22;57049;51.450;-2.516;2023-02-11T09:25:51;9.27;97.98
69776;DHT22;57049;51.450;-2.516;2023-02-11T09:28:16;9.38;98.12
69776;DHT22;57049;51.450;-2.516;2023-02-11T09:30:42;9.42;97.82
69776;DHT22;57049;51.450;-2.516;2023-02-11T09:33:07;9.45;97.57
69776;DHT22;57049;51.450;-2.516;2023-02-11T09:35:33;9.56;97.55
69776;DHT22;57049;51.450;-2.516;2023-02-11T09:37:59;9.66;97.35
69776;DHT22;57049;51.450;-2.516;2023-02-11T09:40:24;9.79;97.36
69776;DHT22;57049;51.450;-2.516;2023-02-11T09:42:56;9.83;97.12
69776;DHT22;57049;51.450;-2.516;2023-02-11T09:45:27;9.86;96.91
69776;DHT22;57049;51.450;-2.516;2023-02-11T09:50:29;9.92;96.54
69776;DHT22;57049;51.450;-2.516;2023-02-11T09:53:16;9.90;96.29
69776;DHT22;57049;51.450;-2.516;2023-02-11T09:55:46;9.93;95.75
69776;DHT22;57049;51.450;-2.516;2023-02-11T09:58:19;10.09;95.85
69776;DHT22;57049;51.450;-2.516;2023-02-11T10:04:11;10.41;95.35
69776;DHT22;57049;51.450;-2.516;2023-02-11T10:06:48;10.54;94.86
69776;DHT22;57049;51.450;-2.516;2023-02-11T10:22:40;10.81;92.15
69776;DHT22;57049;51.450;-2.516;2023-02-11T10:25:21;10.91;91.66
69776;DHT22;57049;51.450;-2.516;2023-02-11T10:27:47;10.92;91.37
69776;DHT22;57049;51.450;-2.516;2023-02-11T10:30:36;10.92;90.72
69776;DHT22;57049;51.450;-2.516;2023-02-11T10:33:23;11.01;91.04
69776;DHT22;57049;51.450;-2.516;2023-02-11T10:35:50;11.08;90.79
69776;DHT22;57049;51.450;-2.516;2023-02-11T10:38:15;11.22;90.72
69776;DHT22;57049;51.450;-2.516;2023-02-11T10:40:41;11.26;90.42
69776;DHT22;57049;51.450;-2.516;2023-02-11T10:43:12;11.39;90.34
69776;DHT22;57049;51.450;-2.516;2023-02-11T10:45:42;11.43;89.21
69776;DHT22;57049;51.450;-2.516;2023-02-11T10:48:47;11.39;88.29
69776;DHT22;57049;51.450;-2.516;2023-02-11T10:51:21;11.46;88.28
69776;DHT22;57049;51.450;-2.516;2023-02-11T10:54:09;11.47;87.93
69776;DHT22;57049;51.450;-2.516;2023-02-11T10:56:50;11.43;88.49
69776;DHT22;57049;51.450;-2.516;2023-02-11T10:59:29;11.42;87.82
69776;DHT22;57049;51.450;-2.516;2023-02-11T11:02:00;11.62;87.57
69776;DHT22;57049;51.450;-2.516;2023-02-11T11:06:55;11.60;86.92
69776;DHT22;57049;51.450;-2.516;2023-02-11T11:09:29;11.50;86.46
69776;DHT22;57049;51.450;-2.516;2023-02-11T11:11:55;11.40;87.57
69776;DHT22;57049;51.450;-2.516;2023-02-11T11:14:22;11.49;88.48
69776;DHT22;57049;51.450;-2.516;2023-02-11T11:16:53;11.25;87.63
69776;DHT22;57049;51.450;-2.516;2023-02-11T11:19:21;11.13;87.77
69776;DHT22;57049;51.450;-2.516;2023-02-11T11:21:53;11.08;88.19
69776;DHT22;57049;51.450;-2.516;2023-02-11T11:24:26;10.76;87.91
69776;DHT22;57049;51.450;-2.516;2023-02-11T11:26:59;10.71;87.45
69776;DHT22;57049;51.450;-2.516;2023-02-11T11:29:39;10.67;86.46
69776;DHT22;57049;51.450;-2.516;2023-02-11T11:32:13;10.79;86.40
69776;DHT22;57049;51.450;-2.516;2023-02-11T11:34:42;10.89;86.17
69776;DHT22;57049;51.450;-2.516;2023-02-11T11:37:18;10.75;85.86
69776;DHT22;57049;51.450;-2.516;2023-02-11T11:39:52;10.65;85.76
69776;DHT22;57049;51.450;-2.516;2023-02-11T11:42:32;10.86;85.66
69776;DHT22;57049;51.450;-2.516;2023-02-11T11:45:26;10.76;85.94
69776;DHT22;57049;51.450;-2.516;2023-02-11T11:50:38;10.68;86.51
69776;DHT22;57049;51.450;-2.516;2023-02-11T11:58:33;10.48;87.91
69776;DHT22;57049;51.450;-2.516;2023-02-11T12:01:29;10.54;87.74
69776;DHT22;57049;51.450;-2.516;2023-02-11T12:04:10;10.36;87.89
69776;DHT22;57049;51.450;-2.516;2023-02-11T12:09:36;10.17;89.14
69776;DHT22;57049;51.450;-2.516;2023-02-11T12:14:48;10.18;89.42
69776;DHT22;57049;51.450;-2.516;2023-02-11T12:20:21;10.21;89.33
69776;DHT22;57049;51.450;-2.516;2023-02-11T12:41:44;10.18;91.50
69776;DHT22;57049;51.450;-2.516;2023-02-11T12:44:58;10.18;91.91
69776;DHT22;57049;51.450;-2.516;2023-02-11T12:48:04;10.17;92.22
69776;DHT22;57049;51.450;-2.516;2023-02-11T12:50:47;10.14;92.41
69776;DHT22;57049;51.450;-2.516;2023-02-11T12:56:25;10.17;92.69
69776;DHT22;57049;51.450;-2.516;2023-02-11T12:58:55;10.10;93.02
69776;DHT22;57049;51.450;-2.516;2023-02-11T13:01:26;10.30;92.50
69776;DHT22;57049;51.450;-2.516;2023-02-11T13:04:03;10.29;92.41
69776;DHT22;57049;51.450;-2.516;2023-02-11T13:06:36;10.30;92.78
69776;DHT22;57049;51.450;-2.516;2023-02-11T13:09:05;10.37;92.75
69776;DHT22;57049;51.450;-2.516;2023-02-11T13:11:39;10.45;92.64
69776;DHT22;57049;51.450;-2.516;2023-02-11T13:14:15;10.43;92.31
69776;DHT22;57049;51.450;-2.516;2023-02-11T13:16:46;10.48;91.47
69776;DHT22;57049;51.450;-2.516;2023-02-11T13:24:42;10.68;91.14
69776;DHT22;57049;51.450;-2.516;2023-02-11T13:35:40;10.95;90.21
69776;DHT22;57049;51.450;-2.516;2023-02-11T13:38:21;11.02;89.88
69776;DHT22;57049;51.450;-2.516;2023-02-11T13:43:30;11.30;89.13
69776;DHT22;57049;51.450;-2.516;2023-02-11T13:46:08;11.49;89.03
69776;DHT22;57049;51.450;-2.516;2023-02-11T13:48:49;11.54;88.52
69776;DHT22;57049;51.450;-2.516;2023-02-11T13:51:33;11.42;88.00
69776;DHT22;57049;51.450;-2.516;2023-02-11T13:53:59;11.42;88.15
69776;DHT22;57049;51.450;-2.516;2023-02-11T13:59:00;11.44;87.99
69776;DHT22;57049;51.450;-2.516;2023-02-11T14:04:32;11.54;87.64
69776;DHT22;57049;51.450;-2.516;2023-02-11T14:07:26;11.62;88.09
69776;DHT22;57049;51.450;-2.516;2023-02-11T14:13:19;11.66;87.39
69776;DHT22;57049;51.450;-2.516;2023-02-11T14:15:46;11.73;87.46
69776;DHT22;57049;51.450;-2.516;2023-02-11T14:23:52;11.74;86.01
69776;DHT22;57049;51.450;-2.516;2023-02-11T14:42:16;11.73;83.95
69776;DHT22;57049;51.450;-2.516;2023-02-11T14:44:45;11.73;84.32
69776;DHT22;57049;51.450;-2.516;2023-02-11T14:47:18;11.76;84.53
69776;DHT22;57049;51.450;-2.516;2023-02-11T14:49:44;11.74;84.39
69776;DHT22;57049;51.450;-2.516;2023-02-11T14:54:59;11.63;84.48
69776;DHT22;57049;51.450;-2.516;2023-02-11T14:57:26;11.49;84.17
69776;DHT22;57049;51.450;-2.516;2023-02-11T15:00:02;11.32;83.50
69776;DHT22;57049;51.450;-2.516;2023-02-11T15:02:33;11.23;83.48
69776;DHT22;57049;51.450;-2.516;2023-02-11T15:07:45;11.11;84.00
69776;DHT22;57049;51.450;-2.516;2023-02-11T15:10:24;11.09;84.03
69776;DHT22;57049;51.450;-2.516;2023-02-11T15:12:50;10.98;83.41
69776;DHT22;57049;51.450;-2.516;2023-02-11T15:15:16;10.94;83.98
69776;DHT22;57049;51.450;-2.516;2023-02-11T15:17:42;10.88;84.00
69776;DHT22;57049;51.450;-2.516;2023-02-11T15:20:24;10.82;84.47
69776;DHT22;57049;51.450;-2.516;2023-02-11T15:22:57;10.74;84.76
69776;DHT22;57049;51.450;-2.516;2023-02-11T15:25:23;10.58;85.06
69776;DHT22;57049;51.450;-2.516;2023-02-11T15:27:51;10.51;85.15
69776;DHT22;57049;51.450;-2.516;2023-02-11T15:32:45;10.25;85.07
69776;DHT22;57049;51.450;-2.516;2023-02-11T15:35:11;10.27;85.97
69776;DHT22;57049;51.450;-2.516;2023-02-11T15:37:38;10.31;86.27
69776;DHT22;57049;51.450;-2.516;2023-02-11T15:40:25;10.11;85.92
69776;DHT22;57049;51.450;-2.516;2023-02-11T15:43:06;10.09;86.15
69776;DHT22;57049;51.450;-2.516;2023-02-11T15:45:34;10.03;86.45
69776;DHT22;57049;51.450;-2.516;2023-02-11T15:48:17;10.06;86.77
69776;DHT22;57049;51.450;-2.516;2023-02-11T15:50:53;10.07;86.92
69776;DHT22;57049;51.450;-2.516;2023-02-11T15:55:50;10.00;86.56
69776;DHT22;57049;51.450;-2.516;2023-02-11T15:58:17;9.97;86.58
69776;DHT22;57049;51.450;-2.516;2023-02-11T16:00:51;9.96;87.02
69776;DHT22;57049;51.450;-2.516;2023-02-11T16:03:25;10.00;87.27
69776;DHT22;57049;51.450;-2.516;2023-02-11T16:05:53;10.01;87.58
69776;DHT22;57049;51.450;-2.516;2023-02-11T16:08:25;10.01;87.24
69776;DHT22;57049;51.450;-2.516;2023-02-11T16:10:57;10.04;87.73
69776;DHT22;57049;51.450;-2.516;2023-02-11T16:13:25;10.06;87.48
69776;DHT22;57049;51.450;-2.516;2023-02-11T16:15:57;9.99;87.46
69776;DHT22;57049;51.450;-2.516;2023-02-11T16:18:35;10.03;87.82
69776;DHT22;57049;51.450;-2.516;2023-02-11T16:21:03;9.97;88.13
69776;DHT22;57049;51.450;-2.516;2023-02-11T16:23:35;9.87;88.27
69776;DHT22;57049;51.450;-2.516;2023-02-11T16:26:37;9.86;88.72
69776;DHT22;57049;51.450;-2.516;2023-02-11T16:29:14;9.85;88.94
69776;DHT22;57049;51.450;-2.516;2023-02-11T16:31:42;9.83;89.07
69776;DHT22;57049;51.450;-2.516;2023-02-11T16:34:27;9.80;89.26
69776;DHT22;57049;51.450;-2.516;2023-02-11T16:36:52;9.75;89.44
69776;DHT22;57049;51.450;-2.516;2023-02-11T16:39:19;9.78;89.87
69776;DHT22;57049;51.450;-2.516;2023-02-11T16:41:48;9.79;90.04
69776;DHT22;57049;51.450;-2.516;2023-02-11T16:44:17;9.82;90.07
69776;DHT22;57049;51.450;-2.516;2023-02-11T16:46:43;9.78;90.36
69776;DHT22;57049;51.450;-2.516;2023-02-11T16:49:11;9.80;90.44
69776;DHT22;57049;51.450;-2.516;2023-02-11T16:51:40;9.78;90.54
69776;DHT22;57049;51.450;-2.516;2023-02-11T16:54:11;9.78;90.93
69776;DHT22;57049;51.450;-2.516;2023-02-11T16:56:37;9.69;91.09
69776;DHT22;57049;51.450;-2.516;2023-02-11T16:59:03;9.73;91.27
69776;DHT22;57049;51.450;-2.516;2023-02-11T17:01:28;9.65;91.23
69776;DHT22;57049;51.450;-2.516;2023-02-11T17:03:53;9.65;91.40
69776;DHT22;57049;51.450;-2.516;2023-02-11T17:06:19;9.63;91.61
69776;DHT22;57049;51.450;-2.516;2023-02-11T17:08:44;9.69;91.51
69776;DHT22;57049;51.450;-2.516;2023-02-11T17:11:10;9.65;91.68
69776;DHT22;57049;51.450;-2.516;2023-02-11T17:13:41;9.63;91.80
69776;DHT22;57049;51.450;-2.516;2023-02-11T17:16:15;9.62;92.06
69776;DHT22;57049;51.450;-2.516;2023-02-11T17:18:41;9.59;92.07
69776;DHT22;57049;51.450;-2.516;2023-02-11T17:21:06;9.59;92.49
69776;DHT22;57049;51.450;-2.516;2023-02-11T17:23:32;9.58;92.72
69776;DHT22;57049;51.450;-2.516;2023-02-11T17:25:57;9.58;92.84
69776;DHT22;57049;51.450;-2.516;2023-02-11T17:28:23;9.53;92.92
69776;DHT22;57049;51.450;-2.516;2023-02-11T17:30:48;9.56;93.09
69776;DHT22;57049;51.450;-2.516;2023-02-11T17:33:14;9.50;93.20
69776;DHT22;57049;51.450;-2.516;2023-02-11T17:35:40;9.46;93.29
69776;DHT22;57049;51.450;-2.516;2023-02-11T17:38:05;9.45;93.48
69776;DHT22;57049;51.450;-2.516;2023-02-11T17:40:31;9.42;93.65
69776;DHT22;57049;51.450;-2.516;2023-02-11T17:42:56;9.43;93.66
69776;DHT22;57049;51.450;-2.516;2023-02-11T17:45:22;9.41;93.76
69776;DHT22;57049;51.450;-2.516;2023-02-11T17:47:48;9.41;93.61
69776;DHT22;57049;51.450;-2.516;2023-02-11T17:50:14;9.39;93.49
69776;DHT22;57049;51.450;-2.516;2023-02-11T17:52:39;9.35;93.46
69776;DHT22;57049;51.450;-2.516;2023-02-11T17:55:06;9.35;93.46
69776;DHT22;57049;51.450;-2.516;2023-02-11T17:57:31;9.35;93.55
69776;DHT22;57049;51.450;-2.516;2023-02-11T17:59:57;9.34;93.60
69776;DHT22;57049;51.450;-2.516;2023-02-11T18:02:22;9.35;93.68
69776;DHT22;57049;51.450;-2.516;2023-02-11T18:04:48;9.34;93.60
69776;DHT22;57049;51.450;-2.516;2023-02-11T18:07:13;9.35;93.59
69776;DHT22;57049;51.450;-2.516;2023-02-11T18:09:40;9.34;93.58
69776;DHT22;57049;51.450;-2.516;2023-02-11T18:12:06;9.35;93.55
69776;DHT22;57049;51.450;-2.516;2023-02-11T18:14:32;9.29;93.71
69776;DHT22;57049;51.450;-2.516;2023-02-11T18:16:58;9.27;93.74
69776;DHT22;57049;51.450;-2.516;2023-02-11T18:19:24;9.28;93.87
69776;DHT22;57049;51.450;-2.516;2023-02-11T18:21:49;9.28;93.82